GSTL EGJB-EGJB

Flight info

Callsign GSTL
Flight time 0h 1m
Altitude 1000
Route TRAFFIC PATTERN
Aircraft C172/L-SFG/S

Departure

Time 2026-04-24 19:31
Airport Guernsey Airport (EGJB)

Arrival

Time 2026-04-24 19:33
Airport Guernsey Airport (EGJB)
Time Latitude Longitude Altitude Speed Heading
2026-04-24 19:21 49.43293 -2.60217 314 ft 0 kts 67°
2026-04-24 19:27 49.43296 -2.60210 314 ft 3 kts 49°
2026-04-24 19:27 49.43334 -2.60212 314 ft 7 kts 303°
2026-04-24 19:27 49.43332 -2.60326 310 ft 13 kts 267°
2026-04-24 19:27 49.43328 -2.60505 303 ft 18 kts 269°
2026-04-24 19:28 49.43327 -2.60543 302 ft 0 kts 267°
2026-04-24 19:28 49.43328 -2.60606 301 ft 13 kts 296°
2026-04-24 19:28 49.43373 -2.60651 300 ft 0 kts 354°
2026-04-24 19:29 49.43393 -2.60654 300 ft 7 kts 357°
2026-04-24 19:30 49.43469 -2.60649 300 ft 13 kts 34°
2026-04-24 19:30 49.43496 -2.60427 306 ft 43 kts 84°
2026-04-24 19:30 49.43478 -2.59923 509 ft 49 kts 89°
2026-04-24 19:30 49.43523 -2.59412 717 ft 53 kts 76°
2026-04-24 19:31 49.43447 -2.58887 877 ft 57 kts 137°
2026-04-24 19:31 49.43062 -2.58526 855 ft 73 kts 145°
2026-04-24 19:31 49.42589 -2.58605 951 ft 80 kts 220°
2026-04-24 19:31 49.42318 -2.59364 978 ft 86 kts 257°
2026-04-24 19:32 49.42222 -2.60337 874 ft 97 kts 267°
2026-04-24 19:32 49.42208 -2.61336 829 ft 92 kts 276°
2026-04-24 19:32 49.42272 -2.62221 826 ft 74 kts 289°
2026-04-24 19:32 49.42487 -2.62798 763 ft 59 kts
2026-04-24 19:33 49.42915 -2.62848 691 ft 63 kts
2026-04-24 19:33 49.43299 -2.62777 708 ft 43 kts 52°
2026-04-24 19:33 49.43426 -2.62230 551 ft 62 kts 81°
2026-04-24 19:33 49.43463 -2.61544 407 ft 65 kts 89°
2026-04-24 19:34 49.43449 -2.61016 503 ft 47 kts 80°
2026-04-24 19:34 49.43490 -2.60456 615 ft 60 kts 76°
2026-04-24 19:34 49.43525 -2.59780 706 ft 65 kts 83°
2026-04-24 19:34 49.43582 -2.59038 812 ft 70 kts 80°
2026-04-24 19:35 49.43263 -2.58428 900 ft 90 kts 154°
2026-04-24 19:35 49.42602 -2.58515 847 ft 103 kts 205°
2026-04-24 19:35 49.42192 -2.59351 834 ft 101 kts 246°
2026-04-24 19:35 49.42058 -2.60373 803 ft 92 kts 264°
2026-04-24 19:36 49.42083 -2.61335 782 ft 89 kts 276°
2026-04-24 19:36 49.42320 -2.62076 806 ft 71 kts 321°
2026-04-24 19:36 49.42733 -2.62477 724 ft 69 kts 340°
2026-04-24 19:36 49.43154 -2.62560 618 ft 65 kts 29°
2026-04-24 19:37 49.43413 -2.62055 519 ft 61 kts 73°
2026-04-24 19:37 49.43469 -2.61383 369 ft 63 kts 83°
2026-04-24 19:37 49.43486 -2.60798 297 ft 42 kts 78°
2026-04-24 19:37 49.43510 -2.60292 400 ft 55 kts 82°
2026-04-24 19:38 49.43531 -2.59560 528 ft 75 kts 83°
2026-04-24 19:38 49.43322 -2.58845 753 ft 84 kts 129°
2026-04-24 19:38 49.42750 -2.58541 828 ft 90 kts 178°
2026-04-24 19:38 49.42260 -2.59176 849 ft 99 kts 248°
2026-04-24 19:39 49.42153 -2.60214 824 ft 96 kts 267°
2026-04-24 19:39 49.42189 -2.61183 849 ft 89 kts 278°
2026-04-24 19:39 49.42317 -2.62105 828 ft 88 kts 289°
2026-04-24 19:39 49.42557 -2.62972 798 ft 84 kts 300°
2026-04-24 19:40 49.42908 -2.63635 707 ft 76 kts 341°
2026-04-24 19:40 49.43337 -2.63494 614 ft 64 kts 58°
2026-04-24 19:40 49.43427 -2.62831 526 ft 59 kts 84°
2026-04-24 19:40 49.43447 -2.62221 434 ft 55 kts 84°
2026-04-24 19:41 49.43458 -2.61654 369 ft 52 kts 83°
2026-04-24 19:41 49.43472 -2.61115 304 ft 45 kts 82°
2026-04-24 19:41 49.43486 -2.60597 367 ft 56 kts 84°
2026-04-24 19:41 49.43506 -2.59870 436 ft 81 kts 86°
2026-04-24 19:42 49.43472 -2.59006 682 ft 82 kts 114°
2026-04-24 19:42 49.42964 -2.58675 985 ft 88 kts 187°
2026-04-24 19:42 49.42501 -2.59387 1054 ft 115 kts 239°
2026-04-24 19:42 49.42311 -2.60614 880 ft 121 kts 265°
2026-04-24 19:43 49.42281 -2.61692 958 ft 86 kts 270°
2026-04-24 19:43 49.42318 -2.62560 906 ft 83 kts 283°
2026-04-24 19:43 49.42468 -2.63404 820 ft 77 kts 306°
2026-04-24 19:43 49.42859 -2.63786 831 ft 64 kts 355°
2026-04-24 19:44 49.43231 -2.63562 744 ft 67 kts 52°
2026-04-24 19:44 49.43426 -2.62941 524 ft 65 kts 82°
2026-04-24 19:44 49.43460 -2.62239 459 ft 64 kts 86°
2026-04-24 19:44 49.43465 -2.61562 360 ft 63 kts 89°
2026-04-24 19:45 49.43481 -2.60983 294 ft 42 kts 89°
2026-04-24 19:45 49.43491 -2.60426 378 ft 60 kts 80°
2026-04-24 19:45 49.43520 -2.59781 544 ft 58 kts 79°
2026-04-24 19:45 49.43532 -2.59161 674 ft 60 kts 97°
2026-04-24 19:46 49.43161 -2.58778 735 ft 76 kts 166°
2026-04-24 19:46 49.42608 -2.58874 762 ft 83 kts 195°
2026-04-24 19:46 49.42265 -2.59579 762 ft 86 kts 251°
2026-04-24 19:46 49.42235 -2.60442 754 ft 78 kts 276°
2026-04-24 19:47 49.42325 -2.61242 753 ft 75 kts 284°
2026-04-24 19:47 49.42441 -2.62021 736 ft 74 kts 288°
2026-04-24 19:47 49.42721 -2.62620 683 ft 68 kts 339°
2026-04-24 19:47 49.43151 -2.62809 582 ft 58 kts 12°
2026-04-24 19:48 49.43418 -2.62476 472 ft 49 kts 73°
2026-04-24 19:48 49.43447 -2.61973 416 ft 47 kts 81°
2026-04-24 19:48 49.43476 -2.60915 295 ft 41 kts 85°
2026-04-24 19:49 49.43508 -2.59431 560 ft 70 kts 90°
2026-04-24 19:49 49.42752 -2.58658 720 ft 80 kts 180°
2026-04-24 19:50 49.42188 -2.61139 841 ft 97 kts 277°
2026-04-24 19:50 49.42309 -2.62173 804 ft 98 kts 282°
2026-04-24 19:51 49.42864 -2.63666 811 ft 60 kts
2026-04-24 19:51 49.43239 -2.63405 694 ft 64 kts 43°
2026-04-24 19:52 49.43457 -2.62150 430 ft 51 kts 78°
2026-04-24 19:52 49.43474 -2.61642 376 ft 47 kts 87°
2026-04-24 19:52 49.43481 -2.61073 576 ft 57 kts 81°
2026-04-24 19:52 49.43500 -2.60437 795 ft 63 kts 85°
2026-04-24 19:53 49.43514 -2.59669 876 ft 81 kts 87°
2026-04-24 19:53 49.43331 -2.58873 1004 ft 86 kts 123°
2026-04-24 19:53 49.42205 -2.59271 917 ft 103 kts 242°
2026-04-24 19:54 49.42084 -2.60277 911 ft 93 kts 269°
2026-04-24 19:54 49.42163 -2.61249 852 ft 92 kts 286°
2026-04-24 19:54 49.42366 -2.62168 795 ft 91 kts 291°
2026-04-24 19:54 49.42563 -2.63108 714 ft 93 kts 290°
2026-04-24 19:55 49.42754 -2.63641 759 ft 71 kts 325°
2026-04-24 19:55 49.43254 -2.63727 625 ft 56 kts 56°
2026-04-24 19:55 49.43407 -2.63138 508 ft 61 kts 78°
2026-04-24 19:55 49.43437 -2.62505 449 ft 58 kts 82°
2026-04-24 19:56 49.43454 -2.61903 402 ft 54 kts 82°
2026-04-24 19:56 49.43467 -2.61344 350 ft 49 kts 84°
2026-04-24 19:56 49.43478 -2.60916 295 ft 30 kts 88°
2026-04-24 19:56 49.43471 -2.60686 300 ft 9 kts 123°
2026-04-24 19:57 49.43424 -2.60654 300 ft 10 kts 182°
2026-04-24 19:57 49.43339 -2.60636 301 ft 11 kts 132°
2026-04-24 19:57 49.43326 -2.60536 302 ft 10 kts 85°
2026-04-24 19:57 49.43331 -2.60370 308 ft 18 kts 86°
2026-04-24 19:58 49.43335 -2.60236 314 ft 10 kts 87°
2026-04-24 19:58 49.43306 -2.60202 315 ft 4 kts 181°
2026-04-24 19:58 49.43290 -2.60221 314 ft 3 kts 290°
2026-04-24 19:58 49.43295 -2.60221 314 ft 0 kts 62°